Time;durP1;ratioP1;P1;durP2;ratioP2;P2;SDS_P1;SDS_P2;PMS_P1;PMS_P2;Temp;Humidity;BMP_temperature;BMP_pressure;BME280_temperature;BME280_humidity;BME280_pressure;Samples;Min_cycle;Max_cycle;Signal;HPM_P1;HPM_P2
2022/04/30 00:00:42;;;;;;;22.33;12.50;;;11.60;97.40;;;;;;4971748;28;20271;-70
2022/04/30 00:03:09;;;;;;;17.03;11.83;;;11.60;97.70;;;;;;4971794;28;20213;-70
2022/04/30 00:05:37;;;;;;;23.53;12.57;;;11.60;98.00;;;;;;4974140;28;20228;-69
2022/04/30 00:08:05;;;;;;;15.17;11.43;;;11.60;98.40;;;;;;4964768;28;20205;-70
2022/04/30 00:10:37;;;;;;;19.10;12.13;;;11.50;98.60;;;;;;4961755;28;20235;-69
2022/04/30 00:13:04;;;;;;;23.43;12.50;;;11.50;98.90;;;;;;4972662;28;20249;-69
2022/04/30 00:15:31;;;;;;;16.67;12.57;;;11.50;99.20;;;;;;4975227;28;20296;-69
2022/04/30 00:17:58;;;;;;;15.57;11.47;;;11.50;99.40;;;;;;4960226;28;20205;-69
2022/04/30 00:20:25;;;;;;;18.87;12.17;;;11.50;99.50;;;;;;4956796;28;20291;-69
2022/04/30 00:22:53;;;;;;;20.73;12.33;;;11.50;99.60;;;;;;4957083;28;20217;-69
2022/04/30 00:25:21;;;;;;;19.40;12.53;;;11.40;99.70;;;;;;4963993;28;20204;-70
2022/04/30 00:27:48;;;;;;;20.37;12.70;;;11.40;99.80;;;;;;4962806;28;20292;-70
2022/04/30 00:30:16;;;;;;;16.97;12.00;;;11.40;99.90;;;;;;4957094;28;20224;-70
2022/04/30 00:32:43;;;;;;;18.03;12.37;;;11.40;99.90;;;;;;4957254;28;20213;-70
2022/04/30 00:35:10;;;;;;;18.33;11.27;;;11.40;99.90;;;;;;4956755;28;20217;-69
2022/04/30 00:37:37;;;;;;;16.00;12.80;;;11.40;99.90;;;;;;4971533;28;20303;-69
2022/04/30 00:40:07;;;;;;;20.60;12.60;;;11.40;99.90;;;;;;4959861;28;20205;-70
2022/04/30 00:42:34;;;;;;;18.57;11.63;;;11.40;99.90;;;;;;4956833;28;20212;-69
2022/04/30 00:45:01;;;;;;;20.70;12.37;;;11.30;99.90;;;;;;4959203;28;20209;-68
2022/04/30 00:47:28;;;;;;;17.17;11.90;;;11.30;99.90;;;;;;4956534;28;20256;-68
2022/04/30 00:49:55;;;;;;;17.17;12.43;;;11.20;99.90;;;;;;4966613;28;20233;-69
2022/04/30 00:52:25;;;;;;;18.13;13.53;;;11.20;99.90;;;;;;4955337;28;20202;-69
2022/04/30 00:54:57;;;;;;;17.17;13.30;;;11.10;99.90;;;;;;4964573;28;20249;-69
2022/04/30 00:57:28;;;;;;;20.07;12.57;;;11.00;99.90;;;;;;4956086;28;20240;-70
2022/04/30 01:00:00;;;;;;;19.17;12.77;;;11.00;99.90;;;;;;4957657;28;20231;-69
2022/04/30 01:02:29;;;;;;;19.30;12.83;;;11.00;99.90;;;;;;4959033;28;20213;-70
2022/04/30 01:04:56;;;;;;;23.17;12.17;;;10.90;99.90;;;;;;4961146;28;20209;-70
2022/04/30 01:07:24;;;;;;;16.63;12.23;;;10.90;99.90;;;;;;4957619;28;20307;-69
2022/04/30 01:09:53;;;;;;;19.27;12.97;;;10.90;99.90;;;;;;4957514;28;20223;-69
2022/04/30 01:12:20;;;;;;;18.13;13.40;;;10.80;99.90;;;;;;4959072;28;20299;-69
2022/04/30 01:14:51;;;;;;;25.47;13.50;;;10.80;99.90;;;;;;4965111;28;20363;-69
2022/04/30 01:17:18;;;;;;;19.83;13.50;;;10.80;99.90;;;;;;4954589;28;20201;-70
2022/04/30 01:19:47;;;;;;;21.70;13.17;;;10.80;99.90;;;;;;4969815;28;20280;-69
2022/04/30 01:22:20;;;;;;;20.60;13.30;;;10.70;99.90;;;;;;4965643;28;20665;-69
2022/04/30 01:24:50;;;;;;;19.87;13.67;;;10.80;99.90;;;;;;4961762;28;20217;-70
2022/04/30 01:27:17;;;;;;;19.80;13.60;;;10.80;99.90;;;;;;4960567;28;20236;-70
2022/04/30 01:29:45;;;;;;;18.90;13.07;;;10.70;99.90;;;;;;4964838;28;20619;-69
2022/04/30 01:37:40;;;;;;;21.10;14.23;;;10.60;99.90;;;;;;4977397;28;20223;-70
2022/04/30 01:40:10;;;;;;;22.63;13.43;;;10.60;99.90;;;;;;4964591;28;20249;-69
2022/04/30 01:42:41;;;;;;;23.93;14.70;;;10.60;99.90;;;;;;4973292;28;20205;-69
2022/04/30 01:45:08;;;;;;;23.10;14.43;;;10.60;99.90;;;;;;4974233;28;20365;-71
2022/04/30 01:47:39;;;;;;;25.47;14.37;;;10.50;99.90;;;;;;4961690;28;20211;-70
2022/04/30 01:50:08;;;;;;;24.57;14.87;;;10.50;99.90;;;;;;4968261;28;20302;-70
2022/04/30 01:52:35;;;;;;;24.60;14.83;;;10.50;99.90;;;;;;4959012;28;20213;-69
2022/04/30 01:55:02;;;;;;;26.10;13.43;;;10.40;99.90;;;;;;4965392;28;20697;-70
2022/04/30 01:57:30;;;;;;;19.20;14.13;;;10.40;99.90;;;;;;4972828;28;20241;-70
2022/04/30 01:59:59;;;;;;;23.67;14.30;;;10.40;99.90;;;;;;4965988;28;20681;-70
2022/04/30 02:02:28;;;;;;;23.97;15.53;;;10.40;99.90;;;;;;4972067;28;20205;-69
2022/04/30 02:04:57;;;;;;;23.87;15.63;;;10.40;99.90;;;;;;4968925;28;20212;-69
2022/04/30 02:07:27;;;;;;;24.17;16.77;;;10.40;99.90;;;;;;4961559;28;20659;-70
2022/04/30 02:09:54;;;;;;;22.30;15.33;;;10.30;99.90;;;;;;4973171;28;20303;-69
2022/04/30 02:12:21;;;;;;;23.50;15.40;;;10.30;99.90;;;;;;4977746;28;20270;-69
2022/04/30 02:14:53;;;;;;;27.47;16.33;;;10.30;99.90;;;;;;4972168;28;20213;-69
2022/04/30 02:17:21;;;;;;;25.97;15.77;;;10.30;99.90;;;;;;4958238;28;20564;-69
2022/04/30 02:22:37;;;;;;;24.47;15.63;;;10.20;99.90;;;;;;4957810;28;20224;-69
2022/04/30 02:25:09;;;;;;;24.23;17.10;;;10.20;99.90;;;;;;4967824;28;20719;-70
2022/04/30 02:27:38;;;;;;;26.93;15.70;;;10.20;99.90;;;;;;4967437;28;20209;-69
2022/04/30 02:30:09;;;;;;;23.40;16.93;;;10.20;99.90;;;;;;4963086;28;20320;-71
2022/04/30 02:32:42;;;;;;;25.07;17.30;;;10.20;99.90;;;;;;4965147;28;20300;-70
2022/04/30 02:35:09;;;;;;;26.20;16.63;;;10.10;99.90;;;;;;4956987;28;20213;-71
2022/04/30 02:37:37;;;;;;;27.83;17.23;;;10.10;99.90;;;;;;4967706;28;20632;-69
2022/04/30 02:40:05;;;;;;;31.07;18.83;;;10.10;99.90;;;;;;4959313;28;20209;-70
2022/04/30 02:42:32;;;;;;;29.27;19.57;;;10.10;99.90;;;;;;4966225;28;20252;-70
2022/04/30 02:45:00;;;;;;;31.27;20.30;;;10.00;99.90;;;;;;4961685;28;20225;-69
2022/04/30 02:47:28;;;;;;;27.93;19.10;;;10.00;99.90;;;;;;4956405;28;20292;-69
2022/04/30 02:49:55;;;;;;;30.43;21.63;;;10.10;99.90;;;;;;4960017;28;20662;-69
2022/04/30 02:52:22;;;;;;;35.30;20.20;;;10.00;99.90;;;;;;4957448;28;20235;-69
2022/04/30 02:54:49;;;;;;;28.23;21.07;;;10.00;99.90;;;;;;4957391;28;20253;-69
2022/04/30 02:57:16;;;;;;;35.27;23.00;;;10.00;99.90;;;;;;4955722;28;20205;-69
2022/04/30 02:59:53;;;;;;;39.23;24.33;;;10.00;99.90;;;;;;4967120;28;20208;-69
2022/04/30 03:02:20;;;;;;;35.53;24.03;;;10.00;99.90;;;;;;4975757;28;20196;-69
2022/04/30 03:04:51;;;;;;;34.60;22.90;;;10.00;99.90;;;;;;4975712;28;20211;-70
2022/04/30 03:07:18;;;;;;;33.83;22.97;;;10.00;99.90;;;;;;4972696;28;20197;-69
2022/04/30 03:09:47;;;;;;;32.73;24.27;;;10.00;99.90;;;;;;4962053;28;20208;-69
2022/04/30 03:12:14;;;;;;;34.77;24.60;;;10.00;99.90;;;;;;4964876;28;20257;-70
2022/04/30 03:14:42;;;;;;;36.43;24.57;;;10.00;99.90;;;;;;4956583;28;20244;-69
2022/04/30 03:22:36;;;;;;;31.00;19.30;;;10.00;99.90;;;;;;4934609;29;20896;-69
2022/04/30 03:25:03;;;;;;;33.07;20.53;;;10.00;99.90;;;;;;4962219;28;20629;-68
2022/04/30 03:27:32;;;;;;;32.53;20.33;;;10.00;99.90;;;;;;4966431;28;20220;-70
2022/04/30 03:29:59;;;;;;;27.67;20.23;;;10.00;99.90;;;;;;4963136;28;20205;-70
2022/04/30 03:32:26;;;;;;;30.73;20.93;;;9.90;99.90;;;;;;4956904;28;20233;-70
2022/04/30 03:34:54;;;;;;;27.70;20.20;;;10.00;99.90;;;;;;4956368;28;20209;-70
2022/04/30 03:37:21;;;;;;;28.50;20.17;;;9.90;99.90;;;;;;4957069;28;20252;-69
2022/04/30 03:39:48;;;;;;;26.43;19.90;;;9.90;99.90;;;;;;4962106;28;20292;-70
2022/04/30 03:42:15;;;;;;;33.20;22.07;;;9.90;99.90;;;;;;4965859;28;20371;-70
2022/04/30 03:44:42;;;;;;;32.03;21.47;;;9.90;99.90;;;;;;4956627;28;20223;-69
2022/04/30 03:47:09;;;;;;;33.80;22.57;;;9.90;99.90;;;;;;4960190;28;20775;-69
2022/04/30 03:49:35;;;;;;;32.77;22.03;;;10.00;99.90;;;;;;4964806;28;20227;-69
2022/04/30 03:52:04;;;;;;;36.13;22.53;;;10.00;99.90;;;;;;4957553;28;20221;-70
2022/04/30 03:54:31;;;;;;;36.63;23.63;;;10.10;99.90;;;;;;4956310;28;20212;-70
2022/04/30 03:56:58;;;;;;;32.67;22.07;;;10.00;99.90;;;;;;4958427;28;20622;-69
2022/04/30 03:59:25;;;;;;;33.03;21.83;;;10.10;99.90;;;;;;4955903;28;20265;-69
2022/04/30 04:01:52;;;;;;;31.97;23.47;;;10.10;99.90;;;;;;4955871;28;20296;-70
2022/04/30 04:04:19;;;;;;;35.53;25.03;;;10.10;99.90;;;;;;4962247;28;20639;-68
2022/04/30 04:06:47;;;;;;;33.97;23.70;;;10.10;99.90;;;;;;4962693;28;20277;-70
2022/04/30 04:09:15;;;;;;;33.70;23.97;;;10.10;99.90;;;;;;4973009;28;20208;-70
2022/04/30 04:11:42;;;;;;;36.00;24.33;;;10.10;99.90;;;;;;4960531;28;20694;-70
2022/04/30 04:19:37;;;;;;;37.90;24.50;;;10.20;99.90;;;;;;4957122;28;20204;-68
2022/04/30 04:22:04;;;;;;;33.73;23.23;;;10.20;99.90;;;;;;4964978;28;20780;-68
2022/04/30 04:27:17;;;;;;;33.47;23.50;;;10.10;99.90;;;;;;4954077;28;21035;-70
2022/04/30 04:29:44;;;;;;;31.23;23.83;;;10.10;99.90;;;;;;4955021;28;20255;-69
2022/04/30 04:32:11;;;;;;;34.40;24.80;;;10.10;99.90;;;;;;4955636;28;20229;-70
2022/04/30 04:34:38;;;;;;;35.90;24.43;;;10.10;99.90;;;;;;4956085;28;20304;-69
2022/04/30 04:37:05;;;;;;;31.47;22.33;;;10.10;99.90;;;;;;4956050;28;20304;-70
2022/04/30 04:39:33;;;;;;;27.37;21.00;;;10.20;99.90;;;;;;4955115;28;20300;-70
2022/04/30 04:42:00;;;;;;;29.80;20.27;;;10.20;99.90;;;;;;4959585;28;20247;-70
2022/04/30 04:44:26;;;;;;;29.93;20.17;;;10.20;99.90;;;;;;4964053;28;20263;-70
2022/04/30 04:46:53;;;;;;;24.67;17.60;;;10.20;99.90;;;;;;4954553;28;20300;-69
2022/04/30 04:49:20;;;;;;;27.67;19.10;;;10.30;99.90;;;;;;4962877;28;20208;-70
2022/04/30 04:51:47;;;;;;;25.17;17.60;;;10.30;99.90;;;;;;4958995;28;20844;-69
2022/04/30 04:54:14;;;;;;;25.30;16.90;;;10.30;99.90;;;;;;4955579;28;20735;-69
2022/04/30 04:56:44;;;;;;;25.57;17.03;;;10.30;99.90;;;;;;4959222;28;20311;-70
2022/04/30 04:59:12;;;;;;;23.27;16.00;;;10.30;99.90;;;;;;4970321;28;20237;-70
2022/04/30 05:01:40;;;;;;;22.97;16.43;;;10.40;99.90;;;;;;4971763;28;20295;-69
2022/04/30 05:04:08;;;;;;;24.63;16.77;;;10.40;99.90;;;;;;4974928;28;20294;-69
2022/04/30 05:06:35;;;;;;;26.30;15.30;;;10.50;99.90;;;;;;4965072;28;20209;-69
2022/04/30 05:09:02;;;;;;;20.57;15.47;;;10.60;99.90;;;;;;4961703;28;20236;-70
2022/04/30 05:11:29;;;;;;;21.90;15.07;;;10.70;99.90;;;;;;4967185;28;20267;-70
2022/04/30 05:13:57;;;;;;;23.83;15.57;;;10.80;99.90;;;;;;4961259;28;20213;-69
2022/04/30 05:16:24;;;;;;;22.10;15.63;;;10.90;99.90;;;;;;4966658;28;20240;-70
2022/04/30 05:18:51;;;;;;;23.43;15.70;;;11.00;99.90;;;;;;4971458;28;20519;-69
2022/04/30 05:21:18;;;;;;;23.53;15.00;;;11.10;99.90;;;;;;4974273;28;20256;-71
2022/04/30 05:23:45;;;;;;;23.07;15.13;;;11.10;99.90;;;;;;4983134;28;20244;-70
2022/04/30 05:26:12;;;;;;;20.43;14.60;;;11.10;99.90;;;;;;4982631;28;20236;-68
2022/04/30 05:28:39;;;;;;;20.83;16.23;;;11.20;99.90;;;;;;4972195;28;20244;-69
2022/04/30 05:31:07;;;;;;;21.87;16.07;;;11.20;99.90;;;;;;4975718;28;20272;-70
2022/04/30 05:33:35;;;;;;;21.90;15.17;;;11.20;99.90;;;;;;4977125;28;20213;-70
2022/04/30 05:36:02;;;;;;;21.90;15.67;;;11.30;99.90;;;;;;4969822;28;20210;-71
2022/04/30 05:38:29;;;;;;;22.20;15.97;;;11.30;99.90;;;;;;4979117;28;20590;-69
2022/04/30 05:40:56;;;;;;;21.70;15.17;;;11.40;99.90;;;;;;4968115;28;20821;-69
2022/04/30 05:43:23;;;;;;;22.33;16.87;;;11.50;99.90;;;;;;4959733;28;20562;-69
2022/04/30 05:45:50;;;;;;;23.27;15.83;;;11.60;99.90;;;;;;4971898;28;20271;-70
2022/04/30 05:48:19;;;;;;;21.97;15.60;;;11.70;99.90;;;;;;4965334;28;20303;-69
2022/04/30 05:50:46;;;;;;;22.73;16.47;;;11.80;99.90;;;;;;4969422;28;20209;-69
2022/04/30 05:53:12;;;;;;;21.63;15.43;;;11.80;99.90;;;;;;4964669;28;20228;-69
2022/04/30 05:55:40;;;;;;;25.77;16.40;;;11.90;99.90;;;;;;4970640;28;20205;-68
2022/04/30 05:58:07;;;;;;;28.33;15.77;;;12.10;99.90;;;;;;4969021;28;20578;-69
2022/04/30 06:00:34;;;;;;;24.00;16.53;;;12.20;99.90;;;;;;4972253;28;20235;-68
2022/04/30 06:03:04;;;;;;;22.90;16.23;;;12.30;99.90;;;;;;4970334;28;20557;-68
2022/04/30 06:05:32;;;;;;;22.47;17.47;;;12.40;99.90;;;;;;4965912;28;20208;-68
2022/04/30 06:07:59;;;;;;;22.23;15.93;;;12.40;99.90;;;;;;4971111;28;20292;-71
2022/04/30 06:10:26;;;;;;;20.80;15.37;;;12.60;99.90;;;;;;4967997;28;20630;-67
2022/04/30 06:12:53;;;;;;;25.20;17.50;;;12.60;99.90;;;;;;4976646;28;20224;-68
2022/04/30 06:15:20;;;;;;;23.40;16.77;;;12.70;99.70;;;;;;4975255;28;20232;-68
2022/04/30 06:17:47;;;;;;;23.50;15.43;;;12.80;99.90;;;;;;4975357;28;20364;-70
2022/04/30 06:20:14;;;;;;;22.03;16.10;;;12.90;99.70;;;;;;4964754;28;20686;-72
2022/04/30 06:22:42;;;;;;;20.93;16.00;;;13.00;99.30;;;;;;4972832;28;20674;-70
2022/04/30 06:25:10;;;;;;;26.00;16.17;;;13.20;99.00;;;;;;4964999;28;20726;-70
2022/04/30 06:27:38;;;;;;;22.30;15.80;;;13.20;98.60;;;;;;4971016;28;20241;-69
2022/04/30 06:30:06;;;;;;;20.60;15.43;;;13.30;98.50;;;;;;4972905;28;20205;-70
2022/04/30 06:32:33;;;;;;;20.53;14.43;;;13.40;98.20;;;;;;4968912;28;20331;-71
2022/04/30 06:35:01;;;;;;;18.67;14.00;;;13.50;98.10;;;;;;4974268;28;20215;-71
2022/04/30 06:37:28;;;;;;;17.80;13.33;;;13.70;97.80;;;;;;4971420;28;20651;-72
2022/04/30 06:39:58;;;;;;;20.07;13.23;;;13.80;97.40;;;;;;4976403;28;20216;-69
2022/04/30 06:42:25;;;;;;;17.87;13.17;;;13.80;96.90;;;;;;4971739;28;20655;-70
2022/04/30 06:44:52;;;;;;;17.97;13.13;;;13.90;96.30;;;;;;4973165;28;20209;-70
2022/04/30 06:47:20;;;;;;;19.40;14.53;;;13.90;95.90;;;;;;4971325;28;20215;-70
2022/04/30 06:49:50;;;;;;;20.40;13.23;;;13.90;95.80;;;;;;4965259;28;20271;-72
2022/04/30 06:52:17;;;;;;;19.13;13.37;;;14.00;95.60;;;;;;4959698;28;20273;-70
2022/04/30 06:57:30;;;;;;;18.77;12.97;;;14.10;95.20;;;;;;4967243;28;20564;-75
2022/04/30 06:59:59;;;;;;;19.93;13.43;;;14.30;94.80;;;;;;4974912;28;20746;-72
2022/04/30 07:02:30;;;;;;;20.63;12.90;;;14.30;94.60;;;;;;4962641;28;20207;-70
2022/04/30 07:04:57;;;;;;;19.37;11.87;;;14.50;94.20;;;;;;4975608;28;20224;-71
2022/04/30 07:07:24;;;;;;;18.60;12.70;;;14.50;93.90;;;;;;4973005;28;20208;-71
2022/04/30 07:09:51;;;;;;;13.83;11.63;;;14.70;93.60;;;;;;4970352;28;20243;-73
2022/04/30 07:12:18;;;;;;;17.27;12.07;;;14.80;93.10;;;;;;4969624;28;20224;-75
2022/04/30 07:14:48;;;;;;;20.07;11.37;;;14.90;92.40;;;;;;4971487;28;20213;-73
2022/04/30 07:17:17;;;;;;;17.23;10.53;;;15.00;91.80;;;;;;4969154;28;20717;-72
2022/04/30 07:19:44;;;;;;;13.17;8.93;;;15.10;91.20;;;;;;4971453;28;20697;-71
2022/04/30 07:22:12;;;;;;;14.63;9.77;;;15.20;90.20;;;;;;4962625;28;20667;-74
2022/04/30 07:24:39;;;;;;;13.10;9.50;;;15.30;89.00;;;;;;4961028;28;20295;-71
2022/04/30 07:27:08;;;;;;;13.10;8.60;;;15.40;87.20;;;;;;4971257;28;20252;-71
2022/04/30 07:29:37;;;;;;;14.07;8.43;;;15.60;86.10;;;;;;4958971;28;20424;-73
2022/04/30 07:32:07;;;;;;;9.97;7.43;;;15.70;84.10;;;;;;4960143;28;21572;-72
2022/04/30 07:34:35;;;;;;;10.47;7.03;;;15.80;82.50;;;;;;4959911;28;20205;-73
2022/04/30 07:37:04;;;;;;;9.73;7.57;;;15.90;80.30;;;;;;4960638;28;20296;-73
2022/04/30 07:39:31;;;;;;;9.10;7.00;;;16.00;78.70;;;;;;4958979;28;20223;-73
2022/04/30 07:41:58;;;;;;;10.17;5.73;;;16.20;77.30;;;;;;4958983;28;20766;-72
2022/04/30 07:44:26;;;;;;;6.88;5.25;;;16.30;75.70;;;;;;4971405;28;20601;-74
2022/04/30 07:46:53;;;;;;;9.03;5.63;;;16.40;72.90;;;;;;4969891;28;20324;-70
2022/04/30 07:49:22;;;;;;;12.50;5.83;;;16.60;71.30;;;;;;4964309;28;20291;-69
2022/04/30 07:51:55;;;;;;;12.27;7.07;;;16.70;69.10;;;;;;4960181;28;20240;-69
2022/04/30 07:54:22;;;;;;;12.13;6.20;;;16.80;68.70;;;;;;4965931;28;20956;-69
2022/04/30 07:56:52;;;;;;;7.10;5.22;;;16.90;68.30;;;;;;4960804;28;20299;-70
2022/04/30 07:59:20;;;;;;;8.03;5.47;;;17.00;67.80;;;;;;4960598;28;20257;-68
2022/04/30 08:01:47;;;;;;;10.32;5.57;;;17.20;66.70;;;;;;4966913;28;20240;-70
2022/04/30 08:04:14;;;;;;;10.88;4.95;;;17.30;66.10;;;;;;4962523;28;20236;-69
2022/04/30 08:06:43;;;;;;;6.10;3.45;;;17.40;65.00;;;;;;4972767;28;20478;-68
2022/04/30 08:09:10;;;;;;;5.28;3.55;;;17.60;63.20;;;;;;4959648;28;20220;-69
2022/04/30 08:11:37;;;;;;;5.30;3.42;;;17.70;61.20;;;;;;4967657;28;20209;-71
2022/04/30 08:14:04;;;;;;;4.03;2.17;;;17.80;59.90;;;;;;4959193;28;20702;-71
2022/04/30 08:16:31;;;;;;;5.18;2.55;;;17.90;58.30;;;;;;4963755;28;20209;-71
2022/04/30 08:18:58;;;;;;;4.30;3.17;;;18.00;57.00;;;;;;4966941;28;20655;-70
2022/04/30 08:21:26;;;;;;;4.05;2.67;;;18.00;55.90;;;;;;4966333;28;20287;-70
2022/04/30 08:23:54;;;;;;;4.05;2.35;;;18.00;55.50;;;;;;4968406;28;20241;-69
2022/04/30 08:26:21;;;;;;;3.08;2.03;;;18.20;54.90;;;;;;4964454;28;20287;-68
2022/04/30 08:28:48;;;;;;;4.22;2.45;;;18.30;54.10;;;;;;4969189;28;20309;-70
2022/04/30 08:31:14;;;;;;;4.85;2.50;;;18.50;53.50;;;;;;4961193;28;20296;-69
2022/04/30 08:33:41;;;;;;;3.58;3.00;;;18.60;53.00;;;;;;4957808;28;20248;-70
2022/04/30 08:36:08;;;;;;;5.75;3.67;;;18.70;52.30;;;;;;4965407;28;20691;-70
2022/04/30 08:38:35;;;;;;;5.93;2.80;;;18.80;52.80;;;;;;4958290;28;20219;-68
2022/04/30 08:41:03;;;;;;;2.47;1.88;;;18.90;51.70;;;;;;4972136;28;20232;-69
2022/04/30 08:43:33;;;;;;;3.75;2.40;;;19.00;51.20;;;;;;4961653;28;20279;-69
2022/04/30 08:46:02;;;;;;;4.47;2.50;;;19.00;51.10;;;;;;4959013;28;20208;-70
2022/04/30 08:48:31;;;;;;;5.82;2.78;;;19.20;51.20;;;;;;4963729;28;20296;-68
2022/04/30 08:50:58;;;;;;;3.63;2.33;;;19.40;50.40;;;;;;4955079;28;20569;-69
2022/04/30 08:53:25;;;;;;;5.03;2.40;;;19.50;49.40;;;;;;4961430;28;20225;-69
2022/04/30 08:55:52;;;;;;;5.95;2.20;;;19.70;48.70;;;;;;4966751;28;20284;-66
2022/04/30 08:58:20;;;;;;;6.30;2.03;;;19.90;47.90;;;;;;4970912;28;20208;-71
2022/04/30 09:00:48;;;;;;;4.30;1.80;;;19.90;46.60;;;;;;4971189;28;20217;-71
2022/04/30 09:03:17;;;;;;;3.67;1.70;;;20.00;46.30;;;;;;4966054;28;20205;-72
2022/04/30 09:05:44;;;;;;;3.88;1.70;;;20.00;45.40;;;;;;4970829;28;20634;-71
2022/04/30 09:08:11;;;;;;;2.92;2.00;;;20.10;44.80;;;;;;4973054;28;20303;-69
2022/04/30 09:10:39;;;;;;;3.42;1.50;;;20.20;44.90;;;;;;4965983;28;20212;-70
2022/04/30 09:13:08;;;;;;;2.63;1.75;;;20.30;44.70;;;;;;4959955;28;20243;-71
2022/04/30 09:15:38;;;;;;;1.88;1.58;;;20.40;44.10;;;;;;4971811;28;20670;-70
2022/04/30 09:18:07;;;;;;;2.67;2.10;;;20.60;43.40;;;;;;4959351;28;20674;-71
2022/04/30 09:20:42;;;;;;;3.38;1.60;;;20.70;42.90;;;;;;4967282;28;20230;-71
2022/04/30 09:23:09;;;;;;;2.90;1.45;;;20.80;41.80;;;;;;4971007;28;20614;-72
2022/04/30 09:25:36;;;;;;;3.08;1.50;;;20.90;41.20;;;;;;4977271;28;20200;-70
2022/04/30 09:28:04;;;;;;;4.68;1.80;;;21.00;40.50;;;;;;4959583;28;20213;-70
2022/04/30 09:30:32;;;;;;;4.05;1.80;;;20.90;40.00;;;;;;4973841;28;20292;-70
2022/04/30 09:33:02;;;;;;;4.68;1.67;;;21.00;39.70;;;;;;4959374;28;20673;-71
2022/04/30 09:38:14;;;;;;;2.10;1.55;;;21.00;39.50;;;;;;4954180;28;20195;-69
2022/04/30 09:40:51;;;;;;;5.57;1.85;;;21.00;39.40;;;;;;4960874;28;20263;-70
2022/04/30 09:43:18;;;;;;;3.58;1.98;;;21.20;39.10;;;;;;4966747;28;20236;-71
2022/04/30 09:45:46;;;;;;;3.60;1.70;;;21.40;38.60;;;;;;4961527;28;20217;-72
2022/04/30 09:53:57;;;;;;;2.72;1.55;;;21.70;38.20;;;;;;4960374;28;20224;-71
2022/04/30 09:56:34;;;;;;;5.93;1.70;;;21.90;38.40;;;;;;4958019;28;20217;-71
2022/04/30 09:59:04;;;;;;;2.08;1.88;;;22.20;39.20;;;;;;4958222;29;20198;-72
2022/04/30 10:01:33;;;;;;;5.10;1.83;;;22.50;38.90;;;;;;4958890;29;20550;-72
2022/04/30 10:04:07;;;;;;;3.30;1.60;;;22.60;38.70;;;;;;4958584;29;20205;-72
2022/04/30 10:06:35;;;;;;;3.28;1.77;;;22.80;38.20;;;;;;4959512;29;20644;-72
2022/04/30 10:09:07;;;;;;;1.60;1.50;;;22.70;37.50;;;;;;4958745;29;20209;-72
2022/04/30 10:11:40;;;;;;;5.57;1.70;;;22.60;37.40;;;;;;4958716;29;20193;-74
2022/04/30 10:14:16;;;;;;;4.25;1.73;;;22.40;37.80;;;;;;4958914;29;20209;-70
2022/04/30 10:16:55;;;;;;;3.92;1.50;;;22.50;37.90;;;;;;4958565;29;20284;-72
2022/04/30 10:19:24;;;;;;;4.32;1.95;;;22.70;37.80;;;;;;4959040;29;20218;-71
2022/04/30 10:22:09;;;;;;;2.78;1.50;;;22.80;37.20;;;;;;4958974;29;20308;-72
2022/04/30 10:24:41;;;;;;;3.15;1.63;;;22.90;36.90;;;;;;4958895;29;20647;-71
2022/04/30 10:27:08;;;;;;;2.05;1.48;;;23.20;36.90;;;;;;4966151;28;20220;-72
2022/04/30 10:29:35;;;;;;;3.85;1.23;;;23.30;36.70;;;;;;4978103;28;20295;-71
2022/04/30 10:32:02;;;;;;;4.07;1.90;;;23.40;36.70;;;;;;4977509;28;20659;-72
2022/04/30 10:34:31;;;;;;;2.00;1.02;;;23.50;36.80;;;;;;4977652;28;20268;-71
2022/04/30 10:37:02;;;;;;;1.58;1.20;;;23.70;36.50;;;;;;4958851;29;20304;-71
2022/04/30 10:39:28;;;;;;;2.83;1.25;;;23.70;36.20;;;;;;4975714;28;20204;-71
2022/04/30 10:41:55;;;;;;;4.78;1.38;;;23.70;36.10;;;;;;4977749;28;20319;-71
2022/04/30 10:44:30;;;;;;;2.72;1.38;;;23.80;36.50;;;;;;4977219;28;20677;-71
2022/04/30 10:46:57;;;;;;;2.75;1.83;;;23.90;36.20;;;;;;4978005;28;20688;-72
2022/04/30 10:49:23;;;;;;;3.85;1.70;;;24.00;36.20;;;;;;4977347;28;20339;-72
2022/04/30 10:51:56;;;;;;;2.65;1.45;;;24.20;36.20;;;;;;4977257;28;20208;-72
2022/04/30 10:54:25;;;;;;;1.92;1.52;;;24.20;35.80;;;;;;4976364;28;20304;-72
2022/04/30 10:57:00;;;;;;;5.75;2.03;;;24.10;36.00;;;;;;4977459;28;20224;-72
2022/04/30 10:59:27;;;;;;;2.85;1.50;;;24.30;36.10;;;;;;4977447;28;20546;-71
2022/04/30 11:01:54;;;;;;;1.77;1.15;;;24.60;36.30;;;;;;4976995;28;20304;-71
2022/04/30 11:04:22;;;;;;;3.70;1.67;;;24.70;36.00;;;;;;4977319;28;20235;-72
2022/04/30 11:06:51;;;;;;;2.90;1.60;;;24.80;36.10;;;;;;4977374;28;20208;-71
2022/04/30 11:09:21;;;;;;;5.40;1.67;;;25.00;36.30;;;;;;4977302;28;20351;-72
2022/04/30 11:11:49;;;;;;;3.00;1.45;;;25.00;36.30;;;;;;4977517;28;20200;-71
2022/04/30 11:14:17;;;;;;;4.00;1.80;;;24.80;36.20;;;;;;4977617;28;20256;-72
2022/04/30 11:16:45;;;;;;;5.38;1.50;;;24.80;36.10;;;;;;4977376;28;20563;-71
2022/04/30 11:19:14;;;;;;;3.13;1.35;;;24.70;36.70;;;;;;4977207;28;20199;-71
2022/04/30 11:21:42;;;;;;;3.22;1.20;;;24.90;36.00;;;;;;4978014;28;20307;-72
2022/04/30 11:24:10;;;;;;;2.10;1.40;;;24.90;35.30;;;;;;4976973;28;20708;-73
2022/04/30 11:26:40;;;;;;;3.03;1.20;;;24.70;34.90;;;;;;4971879;28;20284;-71
2022/04/30 11:29:11;;;;;;;3.70;1.45;;;24.60;34.80;;;;;;4957922;29;20212;-72
2022/04/30 11:31:38;;;;;;;2.03;1.30;;;24.50;35.00;;;;;;4957608;29;20296;-71
2022/04/30 11:34:09;;;;;;;2.80;1.50;;;24.50;35.20;;;;;;4957825;29;20713;-73
2022/04/30 11:36:40;;;;;;;1.50;1.40;;;24.50;34.70;;;;;;4958205;29;20292;-71
2022/04/30 11:39:09;;;;;;;4.47;1.50;;;24.20;34.50;;;;;;4957143;29;20688;-72
2022/04/30 11:41:41;;;;;;;3.95;1.63;;;24.10;34.90;;;;;;4957308;29;20257;-74
2022/04/30 11:44:10;;;;;;;1.85;1.27;;;24.10;35.30;;;;;;4957880;29;20201;-72
2022/04/30 11:46:38;;;;;;;1.70;1.38;;;24.10;34.80;;;;;;4957436;29;20225;-73
2022/04/30 11:49:09;;;;;;;1.83;1.30;;;24.00;35.30;;;;;;4957373;29;20285;-73
2022/04/30 11:51:37;;;;;;;2.35;1.33;;;24.00;35.40;;;;;;4957151;29;20213;-72
2022/04/30 11:54:08;;;;;;;4.50;1.60;;;23.90;35.40;;;;;;4956878;29;20567;-72
2022/04/30 11:56:35;;;;;;;2.17;1.55;;;23.70;35.60;;;;;;4960069;28;20239;-73
2022/04/30 11:59:03;;;;;;;3.22;1.70;;;23.60;35.80;;;;;;4975930;28;20256;-72
2022/04/30 12:01:32;;;;;;;3.30;1.50;;;23.60;35.90;;;;;;4976511;28;20213;-73
2022/04/30 12:04:00;;;;;;;2.83;1.40;;;23.80;35.90;;;;;;4976251;28;20617;-73
2022/04/30 12:06:28;;;;;;;2.30;1.35;;;23.90;35.60;;;;;;4981283;28;20212;-72
2022/04/30 12:08:55;;;;;;;4.75;1.67;;;23.90;35.40;;;;;;4977281;28;20232;-72
2022/04/30 12:11:22;;;;;;;2.05;1.58;;;24.00;35.40;;;;;;4977452;28;20316;-72
2022/04/30 12:14:00;;;;;;;2.03;1.30;;;24.10;35.60;;;;;;4977623;28;20757;-73
2022/04/30 12:16:36;;;;;;;4.28;1.42;;;24.20;34.90;;;;;;4976954;28;20211;-73
2022/04/30 12:24:44;;;;;;;4.40;1.70;;;24.70;34.30;;;;;;4977340;28;20184;-72
2022/04/30 12:27:21;;;;;;;2.00;1.42;;;24.60;34.40;;;;;;4964140;28;20213;-71
2022/04/30 12:29:48;;;;;;;4.10;1.42;;;24.70;34.50;;;;;;4956589;29;20717;-72
2022/04/30 12:32:20;;;;;;;1.98;1.45;;;24.80;34.60;;;;;;4956675;29;20288;-72
2022/04/30 12:34:47;;;;;;;2.53;1.35;;;24.90;34.30;;;;;;4956321;29;20316;-73
2022/04/30 12:37:14;;;;;;;3.67;1.13;;;24.90;34.20;;;;;;4956671;29;20201;-72
2022/04/30 12:39:42;;;;;;;4.32;1.27;;;24.90;34.30;;;;;;4956566;29;20321;-72
2022/04/30 12:42:11;;;;;;;1.88;1.05;;;24.70;34.10;;;;;;4956299;29;20726;-72
2022/04/30 12:44:38;;;;;;;3.75;1.33;;;24.70;34.20;;;;;;4955929;29;20244;-72
2022/04/30 12:47:05;;;;;;;2.05;1.20;;;24.80;34.30;;;;;;4955812;29;20209;-72
2022/04/30 12:49:33;;;;;;;5.07;1.60;;;24.80;34.30;;;;;;4955761;29;20292;-73
2022/04/30 12:52:00;;;;;;;1.98;1.20;;;24.70;34.10;;;;;;4956211;29;20240;-72
2022/04/30 12:54:27;;;;;;;2.50;1.42;;;24.60;33.80;;;;;;4956299;29;20221;-73
2022/04/30 12:56:57;;;;;;;2.92;1.30;;;24.60;34.00;;;;;;4965803;28;20300;-74
2022/04/30 12:59:25;;;;;;;4.13;1.20;;;24.50;34.10;;;;;;4974901;28;20215;-72
2022/04/30 13:01:52;;;;;;;3.88;1.98;;;24.40;34.60;;;;;;4974448;28;20204;-72
2022/04/30 13:04:19;;;;;;;3.00;1.20;;;24.30;34.20;;;;;;4975941;28;20239;-72
2022/04/30 13:06:48;;;;;;;3.03;1.58;;;24.20;34.40;;;;;;4975381;28;20733;-71
2022/04/30 13:14:45;;;;;;;4.32;1.77;;;23.50;34.30;;;;;;4956176;29;20220;-72
2022/04/30 13:17:12;;;;;;;3.05;2.67;;;23.40;34.70;;;;;;4956185;28;20217;-72
2022/04/30 13:19:40;;;;;;;2.28;1.40;;;23.40;35.00;;;;;;4960170;29;20209;-72
2022/04/30 13:22:08;;;;;;;3.92;1.60;;;23.30;35.10;;;;;;4961152;29;20240;-73
2022/04/30 13:24:35;;;;;;;3.53;1.60;;;23.20;35.20;;;;;;4960935;29;20197;-71